Time;durP1;ratioP1;P1;durP2;ratioP2;P2;SDS_P1;SDS_P2;PMS_P1;PMS_P2;Temp;Humidity;BMP_temperature;BMP_pressure;BME280_temperature;BME280_humidity;BME280_pressure;Samples;Min_cycle;Max_cycle;Signal;HPM_P1;HPM_P2
2023/01/04 00:01:48;;;;;;;4.05;1.30;;;;;;;;;;4983871;28;92460;-65
2023/01/04 00:04:15;;;;;;;4.00;1.48;;;;;;;;;;4980067;28;92741;-65
2023/01/04 00:06:41;;;;;;;5.28;1.52;;;;;;;;;;4979559;28;94754;-65
2023/01/04 00:09:07;;;;;;;2.95;1.30;;;;;;;;;;4981173;28;95149;-63
2023/01/04 00:11:34;;;;;;;4.45;1.40;;;;;;;;;;4984556;28;92419;-65
2023/01/04 00:14:00;;;;;;;5.25;1.70;;;;;;;;;;4991777;28;92406;-63
2023/01/04 00:16:27;;;;;;;2.65;1.20;;;;;;;;;;4984426;28;92386;-64
2023/01/04 00:18:54;;;;;;;3.33;1.25;;;;;;;;;;4984335;28;93028;-64
2023/01/04 00:21:22;;;;;;;3.85;1.40;;;;;;;;;;4987387;28;92239;-64
2023/01/04 00:23:49;;;;;;;3.95;1.60;;;;;;;;;;4984606;28;92192;-65
2023/01/04 00:26:17;;;;;;;2.90;1.30;;;;;;;;;;4984347;28;92423;-64
2023/01/04 00:28:44;;;;;;;3.78;1.75;;;;;;;;;;4983955;28;92858;-63
2023/01/04 00:31:19;;;;;;;3.45;1.70;;;;;;;;;;4997520;28;97261;-64
2023/01/04 00:33:45;;;;;;;4.82;1.30;;;;;;;;;;4983925;28;92412;-66
2023/01/04 00:36:13;;;;;;;3.65;1.20;;;;;;;;;;4984305;28;93257;-64
2023/01/04 00:38:39;;;;;;;4.82;1.55;;;;;;;;;;4983614;28;93736;-65
2023/01/04 00:41:07;;;;;;;2.75;1.40;;;;;;;;;;4983801;28;92157;-66
2023/01/04 00:43:33;;;;;;;4.50;1.48;;;;;;;;;;4986624;28;92041;-65
2023/01/04 00:46:00;;;;;;;2.75;1.40;;;;;;;;;;4983940;28;92035;-64
2023/01/04 00:48:27;;;;;;;2.90;1.20;;;;;;;;;;4999567;28;92577;-64
2023/01/04 00:50:53;;;;;;;3.83;1.60;;;;;;;;;;4969891;28;93127;-64
2023/01/04 00:53:20;;;;;;;3.80;1.50;;;;;;;;;;4982737;28;92509;-63
2023/01/04 00:55:46;;;;;;;4.35;1.40;;;;;;;;;;4982365;28;95977;-63
2023/01/04 00:58:13;;;;;;;3.53;1.25;;;;;;;;;;4974981;28;92824;-64
2023/01/04 01:00:39;;;;;;;3.00;1.50;;;;;;;;;;4983729;28;92450;-66
2023/01/04 01:03:05;;;;;;;2.17;1.20;;;;;;;;;;4983256;28;93575;-65
2023/01/04 01:05:34;;;;;;;2.35;1.40;;;;;;;;;;4986434;28;93399;-63
2023/01/04 01:08:23;;;;;;;3.00;1.23;;;;;;;;;;4983379;28;92344;-64
2023/01/04 01:10:47;;;;;;;2.22;1.27;;;;;;;;;;4983144;28;92517;-63
2023/01/04 01:13:14;;;;;;;3.25;1.38;;;;;;;;;;4997587;28;91732;-65
2023/01/04 01:15:40;;;;;;;1.60;1.05;;;;;;;;;;4982940;28;92489;-64
2023/01/04 01:18:07;;;;;;;3.55;1.50;;;;;;;;;;4983495;28;92718;-63
2023/01/04 01:20:33;;;;;;;3.63;1.55;;;;;;;;;;4981815;28;94839;-65
2023/01/04 01:23:00;;;;;;;2.95;1.40;;;;;;;;;;4983203;28;94919;-65
2023/01/04 01:25:26;;;;;;;2.22;1.10;;;;;;;;;;4982872;28;92961;-64
2023/01/04 01:27:52;;;;;;;2.47;1.30;;;;;;;;;;4986302;28;92231;-64
2023/01/04 01:30:19;;;;;;;3.30;1.20;;;;;;;;;;4983089;28;92788;-65
2023/01/04 01:32:45;;;;;;;2.17;1.10;;;;;;;;;;4983261;28;92534;-64
2023/01/04 01:35:11;;;;;;;3.33;1.30;;;;;;;;;;4983793;28;92926;-65
2023/01/04 01:37:38;;;;;;;2.55;1.45;;;;;;;;;;4983561;28;92395;-65
2023/01/04 01:40:04;;;;;;;3.80;1.20;;;;;;;;;;4983286;28;92404;-65
2023/01/04 01:42:31;;;;;;;2.60;1.20;;;;;;;;;;4983057;28;92546;-64
2023/01/04 01:44:59;;;;;;;2.00;1.00;;;;;;;;;;4981301;28;95170;-65
2023/01/04 01:47:30;;;;;;;3.13;1.15;;;;;;;;;;4982725;28;92324;-65
2023/01/04 01:49:56;;;;;;;3.22;1.10;;;;;;;;;;4986180;28;92452;-66
2023/01/04 01:52:25;;;;;;;2.35;1.20;;;;;;;;;;4980939;28;92370;-64
2023/01/04 01:54:54;;;;;;;3.72;1.30;;;;;;;;;;4973720;28;92627;-65
2023/01/04 01:57:23;;;;;;;1.95;1.20;;;;;;;;;;4982306;28;92807;-64
2023/01/04 01:59:52;;;;;;;3.63;1.38;;;;;;;;;;4981590;28;92078;-66
2023/01/04 02:02:18;;;;;;;2.90;1.20;;;;;;;;;;4982237;28;92445;-65
2023/01/04 02:04:47;;;;;;;2.58;1.10;;;;;;;;;;4982779;28;92497;-65
2023/01/04 02:07:15;;;;;;;1.75;1.23;;;;;;;;;;4982443;28;92308;-65
2023/01/04 02:09:43;;;;;;;2.40;1.15;;;;;;;;;;4981303;28;94445;-65
2023/01/04 02:12:09;;;;;;;;;;;;;;;;;;4988248;28;92938;-65
2023/01/04 02:14:35;;;;;;;;;;;;;;;;;;4983848;28;121352;-64
2023/01/04 02:17:01;;;;;;;;;;;;;;;;;;4983758;28;122381;-63
2023/01/04 02:19:34;;;;;;;3.28;1.20;;;;;;;;;;4984455;28;92041;-64
2023/01/04 02:22:19;;;;;;;1.55;1.27;;;;;;;;;;4982614;28;92111;-65
2023/01/04 02:24:45;;;;;;;1.73;0.90;;;;;;;;;;4982573;28;92481;-65
2023/01/04 02:27:31;;;;;;;2.85;1.00;;;;;;;;;;4982692;28;91285;-63
2023/01/04 02:30:03;;;;;;;4.47;1.13;;;;;;;;;;4982556;28;92518;-65
2023/01/04 02:32:35;;;;;;;3.30;1.40;;;;;;;;;;4985522;28;94127;-65
2023/01/04 02:35:16;;;;;;;4.18;1.10;;;;;;;;;;4981013;28;94371;-65
2023/01/04 02:37:57;;;;;;;2.60;1.10;;;;;;;;;;4981457;28;92676;-65
2023/01/04 02:40:30;;;;;;;2.65;1.10;;;;;;;;;;4979955;28;92402;-63
2023/01/04 02:46:07;;;;;;;2.25;1.10;;;;;;;;;;4982391;28;92676;-65
2023/01/04 02:51:25;;;;;;;1.58;1.10;;;;;;;;;;4982310;28;92523;-66
2023/01/04 02:53:51;;;;;;;2.13;0.85;;;;;;;;;;4982477;28;93032;-65
2023/01/04 02:56:34;;;;;;;2.15;1.05;;;;;;;;;;4984969;28;92193;-65
2023/01/04 02:59:20;;;;;;;2.30;1.10;;;;;;;;;;4982300;28;92756;-65
2023/01/04 03:07:48;;;;;;;1.13;0.82;;;;;;;;;;4981752;28;92805;-62
2023/01/04 03:10:20;;;;;;;1.90;0.90;;;;;;;;;;4981526;28;92093;-65
2023/01/04 03:12:50;;;;;;;2.25;1.00;;;;;;;;;;4987857;28;92623;-65
2023/01/04 03:15:27;;;;;;;2.15;0.80;;;;;;;;;;4982046;28;92748;-65
2023/01/04 03:18:06;;;;;;;2.30;0.93;;;;;;;;;;4981842;28;92066;-65
2023/01/04 03:20:32;;;;;;;1.52;0.82;;;;;;;;;;4985366;28;92961;-63
2023/01/04 03:37:03;;;;;;;1.88;0.95;;;;;;;;;;4981422;28;93815;-65
2023/01/04 03:48:28;;;;;;;2.35;1.13;;;;;;;;;;4983091;28;92344;-65
2023/01/04 03:51:01;;;;;;;1.27;1.10;;;;;;;;;;4984624;28;92743;-65
2023/01/04 03:53:28;;;;;;;1.55;0.90;;;;;;;;;;4984954;28;92406;-64
2023/01/04 03:55:55;;;;;;;2.08;1.10;;;;;;;;;;4983336;28;94829;-65
2023/01/04 03:58:21;;;;;;;2.67;1.00;;;;;;;;;;4984577;28;92319;-64
2023/01/04 04:00:48;;;;;;;1.80;0.80;;;;;;;;;;4984633;28;92132;-65
2023/01/04 04:03:14;;;;;;;1.48;0.80;;;;;;;;;;4984434;28;92507;-68
2023/01/04 04:08:27;;;;;;;1.75;1.00;;;;;;;;;;4987688;28;92330;-65
2023/01/04 04:13:49;;;;;;;1.15;0.80;;;;;;;;;;4982600;28;91651;-65
2023/01/04 04:16:15;;;;;;;1.52;0.90;;;;;;;;;;4984484;28;92160;-65
2023/01/04 04:18:42;;;;;;;1.08;0.90;;;;;;;;;;4984142;28;92112;-65
2023/01/04 04:21:08;;;;;;;1.73;1.00;;;;;;;;;;4982643;28;94510;-65
2023/01/04 04:23:35;;;;;;;1.83;0.95;;;;;;;;;;4984266;28;94724;-69
2023/01/04 04:26:01;;;;;;;1.23;0.90;;;;;;;;;;4999430;28;93414;-65
2023/01/04 04:28:28;;;;;;;1.52;0.98;;;;;;;;;;4984239;28;92024;-65
2023/01/04 04:30:54;;;;;;;2.00;0.93;;;;;;;;;;4986780;28;92331;-65
2023/01/04 04:33:20;;;;;;;2.30;1.30;;;;;;;;;;4984098;28;92536;-66
2023/01/04 04:35:53;;;;;;;1.50;0.80;;;;;;;;;;4984130;28;92610;-67
2023/01/04 04:38:20;;;;;;;1.23;0.85;;;;;;;;;;4984563;28;92489;-65
2023/01/04 04:43:32;;;;;;;1.55;1.00;;;;;;;;;;4984252;28;92462;-65
2023/01/04 04:45:59;;;;;;;1.83;0.90;;;;;;;;;;4982006;28;95336;-65
2023/01/04 04:48:25;;;;;;;1.45;0.88;;;;;;;;;;4983514;28;92185;-65
2023/01/04 04:50:52;;;;;;;1.65;0.95;;;;;;;;;;4986716;28;92214;-64
2023/01/04 04:53:18;;;;;;;1.77;1.00;;;;;;;;;;4983841;28;92039;-65
2023/01/04 04:55:44;;;;;;;1.58;0.95;;;;;;;;;;4982574;28;92486;-65
2023/01/04 04:58:11;;;;;;;1.63;0.90;;;;;;;;;;4983605;28;92496;-65
2023/01/04 05:00:39;;;;;;;1.73;0.90;;;;;;;;;;4982914;28;92291;-66
2023/01/04 05:03:05;;;;;;;1.20;0.95;;;;;;;;;;4983732;28;92841;-65
2023/01/04 05:05:32;;;;;;;1.00;0.80;;;;;;;;;;4983411;28;92838;-65
2023/01/04 05:07:58;;;;;;;1.40;1.00;;;;;;;;;;4983501;28;92147;-65
2023/01/04 05:10:25;;;;;;;2.22;0.98;;;;;;;;;;4982110;28;94445;-63
2023/01/04 05:13:00;;;;;;;1.45;0.80;;;;;;;;;;4991228;28;92852;-65
2023/01/04 05:15:36;;;;;;;1.80;0.95;;;;;;;;;;4983643;28;92801;-64
2023/01/04 05:18:04;;;;;;;0.98;0.77;;;;;;;;;;4983483;28;92048;-65
2023/01/04 05:20:30;;;;;;;1.38;0.85;;;;;;;;;;4982310;28;92323;-64
2023/01/04 05:22:57;;;;;;;2.20;0.90;;;;;;;;;;4983580;28;92725;-65
2023/01/04 05:25:23;;;;;;;0.82;0.80;;;;;;;;;;4983320;28;92715;-65
2023/01/04 05:27:50;;;;;;;0.75;0.70;;;;;;;;;;4983516;28;91403;-66
2023/01/04 05:33:02;;;;;;;1.13;0.80;;;;;;;;;;4983423;28;92920;-65
2023/01/04 05:35:29;;;;;;;1.73;0.98;;;;;;;;;;4984945;28;94813;-65
2023/01/04 05:37:55;;;;;;;2.00;0.90;;;;;;;;;;4982757;28;92650;-65
2023/01/04 05:40:22;;;;;;;1.90;1.10;;;;;;;;;;4981918;28;92393;-64
2023/01/04 05:42:49;;;;;;;1.17;1.00;;;;;;;;;;4982712;28;92464;-66
2023/01/04 05:45:16;;;;;;;2.47;0.95;;;;;;;;;;4998505;28;94601;-66
2023/01/04 05:47:42;;;;;;;1.75;0.93;;;;;;;;;;4982781;28;92294;-65
2023/01/04 05:50:09;;;;;;;1.10;0.90;;;;;;;;;;4983253;28;93172;-64
2023/01/04 05:52:36;;;;;;;1.40;0.80;;;;;;;;;;4982786;28;92857;-64
2023/01/04 05:55:03;;;;;;;1.45;0.90;;;;;;;;;;4983345;28;92655;-65
2023/01/04 05:57:29;;;;;;;0.90;0.85;;;;;;;;;;4985086;28;93510;-66
2023/01/04 05:59:56;;;;;;;1.20;0.98;;;;;;;;;;4981289;28;94460;-64
2023/01/04 06:02:23;;;;;;;1.17;0.80;;;;;;;;;;4982263;28;94922;-67
2023/01/04 06:04:50;;;;;;;;;;;;;;;;;;4983112;28;92063;-64
2023/01/04 06:07:23;;;;;;;0.98;0.85;;;;;;;;;;4982347;28;116583;-64
2023/01/04 06:09:50;;;;;;;1.60;0.90;;;;;;;;;;4981547;28;92411;-66
2023/01/04 06:12:16;;;;;;;1.15;0.80;;;;;;;;;;4985749;28;92845;-64
2023/01/04 06:14:42;;;;;;;1.63;1.00;;;;;;;;;;4982995;28;92388;-65
2023/01/04 06:17:09;;;;;;;0.80;0.80;;;;;;;;;;4982964;28;92465;-65
2023/01/04 06:19:35;;;;;;;1.17;1.02;;;;;;;;;;4985851;28;92810;-63
2023/01/04 06:22:02;;;;;;;1.30;0.90;;;;;;;;;;4982408;28;93241;-65
2023/01/04 06:24:28;;;;;;;1.35;1.00;;;;;;;;;;4980880;28;95793;-65
2023/01/04 06:26:55;;;;;;;1.48;1.00;;;;;;;;;;4982448;28;92468;-65
2023/01/04 06:29:21;;;;;;;0.80;0.80;;;;;;;;;;4982680;28;92451;-65
2023/01/04 06:31:47;;;;;;;1.25;0.85;;;;;;;;;;4982148;28;93005;-65
2023/01/04 06:34:14;;;;;;;1.08;0.90;;;;;;;;;;4982330;28;92126;-65
2023/01/04 06:36:40;;;;;;;1.00;0.90;;;;;;;;;;4982551;28;92498;-65
2023/01/04 06:39:07;;;;;;;1.08;0.90;;;;;;;;;;4980778;28;92927;-65
2023/01/04 06:41:33;;;;;;;1.08;1.00;;;;;;;;;;4985569;28;91244;-65
2023/01/04 06:44:00;;;;;;;1.63;0.90;;;;;;;;;;4982942;28;93682;-65
2023/01/04 06:46:26;;;;;;;1.33;0.70;;;;;;;;;;4982478;28;92458;-66
2023/01/04 06:48:53;;;;;;;0.98;0.93;;;;;;;;;;4980719;28;94820;-65
2023/01/04 06:51:20;;;;;;;2.05;0.93;;;;;;;;;;4981875;28;92611;-66
2023/01/04 06:53:46;;;;;;;1.20;0.82;;;;;;;;;;4981662;28;92291;-67
2023/01/04 06:56:13;;;;;;;1.48;1.00;;;;;;;;;;4982081;28;92730;-65
2023/01/04 06:58:39;;;;;;;1.10;1.00;;;;;;;;;;4981828;28;92818;-65
2023/01/04 07:01:06;;;;;;;2.25;0.90;;;;;;;;;;4985451;28;92522;-65
2023/01/04 07:03:32;;;;;;;1.38;0.80;;;;;;;;;;4981543;28;92750;-65
2023/01/04 07:06:02;;;;;;;1.73;0.95;;;;;;;;;;4982439;28;91349;-64
2023/01/04 07:08:28;;;;;;;1.20;0.80;;;;;;;;;;4981690;28;92367;-64
2023/01/04 07:10:55;;;;;;;1.10;1.00;;;;;;;;;;4981313;28;93922;-66
2023/01/04 07:13:21;;;;;;;2.08;1.00;;;;;;;;;;4985463;28;94945;-64
2023/01/04 07:15:47;;;;;;;0.80;0.70;;;;;;;;;;4981816;28;94984;-66
2023/01/04 07:18:14;;;;;;;1.05;0.88;;;;;;;;;;4981677;28;92702;-65
2023/01/04 07:20:40;;;;;;;1.25;0.90;;;;;;;;;;4981981;28;92488;-63
2023/01/04 07:23:07;;;;;;;1.75;1.20;;;;;;;;;;4985803;28;92636;-64
2023/01/04 07:25:33;;;;;;;1.27;0.95;;;;;;;;;;4985203;28;92967;-64
2023/01/04 07:28:00;;;;;;;1.77;1.00;;;;;;;;;;4985293;28;92387;-63
2023/01/04 07:30:26;;;;;;;1.95;1.05;;;;;;;;;;4985240;28;91531;-63
2023/01/04 07:32:53;;;;;;;1.30;1.00;;;;;;;;;;4985180;28;92587;-64
2023/01/04 07:35:20;;;;;;;1.20;1.00;;;;;;;;;;4984622;28;92467;-64
2023/01/04 07:37:47;;;;;;;2.35;1.10;;;;;;;;;;4983507;28;95991;-65
2023/01/04 07:40:23;;;;;;;1.52;0.90;;;;;;;;;;4985551;28;92418;-65
2023/01/04 07:42:52;;;;;;;1.60;0.75;;;;;;;;;;4984738;28;93423;-63
2023/01/04 07:45:19;;;;;;;0.80;0.80;;;;;;;;;;4987942;28;92791;-65
2023/01/04 07:47:45;;;;;;;1.88;0.90;;;;;;;;;;4984738;28;92028;-64
2023/01/04 07:50:11;;;;;;;2.00;1.00;;;;;;;;;;4999884;28;94441;-65
2023/01/04 07:52:38;;;;;;;0.95;0.80;;;;;;;;;;4984614;28;92085;-65
2023/01/04 07:55:04;;;;;;;2.22;0.95;;;;;;;;;;4985477;28;92822;-65
2023/01/04 07:57:31;;;;;;;1.42;1.00;;;;;;;;;;4984474;28;92875;-64
2023/01/04 07:59:57;;;;;;;1.52;0.90;;;;;;;;;;4984950;28;92252;-63
2023/01/04 08:02:24;;;;;;;1.77;1.13;;;;;;;;;;4982689;28;94518;-65
2023/01/04 08:04:50;;;;;;;1.52;1.08;;;;;;;;;;4984587;28;92923;-65
2023/01/04 08:07:17;;;;;;;1.35;0.95;;;;;;;;;;4986402;28;92431;-68
2023/01/04 08:09:43;;;;;;;1.02;0.85;;;;;;;;;;4984524;28;92939;-65
2023/01/04 08:12:10;;;;;;;1.33;0.80;;;;;;;;;;4989112;28;92476;-64
2023/01/04 08:14:36;;;;;;;1.00;0.80;;;;;;;;;;4984807;28;93030;-65
2023/01/04 08:17:02;;;;;;;1.00;0.80;;;;;;;;;;4984079;28;92806;-65
2023/01/04 08:19:29;;;;;;;1.30;0.82;;;;;;;;;;4984904;28;91427;-63
2023/01/04 08:21:55;;;;;;;0.95;0.80;;;;;;;;;;4984122;28;91975;-66
2023/01/04 08:24:21;;;;;;;1.00;0.82;;;;;;;;;;4984316;28;92842;-65
2023/01/04 08:26:48;;;;;;;1.40;0.75;;;;;;;;;;4982203;28;94666;-66
2023/01/04 08:29:14;;;;;;;0.95;0.82;;;;;;;;;;4987218;28;95067;-65
2023/01/04 08:31:41;;;;;;;2.58;1.00;;;;;;;;;;4983853;28;92045;-65
2023/01/04 08:34:08;;;;;;;2.65;1.00;;;;;;;;;;4983910;28;92586;-65
2023/01/04 08:36:43;;;;;;;1.35;0.95;;;;;;;;;;4983166;28;92790;-66
2023/01/04 08:39:09;;;;;;;2.30;1.00;;;;;;;;;;4983907;28;92264;-65
2023/01/04 08:41:49;;;;;;;1.73;0.90;;;;;;;;;;4983846;28;92508;-63
2023/01/04 08:44:30;;;;;;;1.55;1.10;;;;;;;;;;4984325;28;92392;-66
2023/01/04 08:46:57;;;;;;;1.67;0.90;;;;;;;;;;4983648;28;92187;-64
2023/01/04 08:49:24;;;;;;;2.35;0.90;;;;;;;;;;4987062;28;92652;-65
2023/01/04 08:51:51;;;;;;;2.38;1.00;;;;;;;;;;4982164;28;94609;-65
2023/01/04 08:54:17;;;;;;;1.50;1.00;;;;;;;;;;4983720;28;95697;-67
2023/01/04 08:56:44;;;;;;;2.15;0.93;;;;;;;;;;4983216;28;92848;-65
2023/01/04 08:59:11;;;;;;;1.67;0.90;;;;;;;;;;4983934;28;92691;-65
2023/01/04 09:01:38;;;;;;;1.65;1.15;;;;;;;;;;4982775;28;92471;-63
2023/01/04 09:04:04;;;;;;;1.40;0.70;;;;;;;;;;4982700;28;93066;-66
2023/01/04 09:06:31;;;;;;;2.15;1.00;;;;;;;;;;4982980;28;92028;-65
2023/01/04 09:08:58;;;;;;;1.63;0.90;;;;;;;;;;4982362;28;93489;-65
2023/01/04 09:11:24;;;;;;;1.92;0.85;;;;;;;;;;4988106;28;93137;-65
2023/01/04 09:13:55;;;;;;;1.50;0.90;;;;;;;;;;4984661;28;92782;-66
2023/01/04 09:16:29;;;;;;;1.52;0.80;;;;;;;;;;4981315;28;95230;-65
2023/01/04 09:18:56;;;;;;;0.80;0.73;;;;;;;;;;4982871;28;92100;-64
2023/01/04 09:21:22;;;;;;;1.42;0.80;;;;;;;;;;4983223;28;92927;-64
2023/01/04 09:23:49;;;;;;;0.88;0.88;;;;;;;;;;4982465;28;92857;-66
2023/01/04 09:26:17;;;;;;;1.95;0.82;;;;;;;;;;4982548;28;92132;-65
2023/01/04 09:28:43;;;;;;;0.93;0.80;;;;;;;;;;4981093;28;95458;-66
2023/01/04 09:31:11;;;;;;;1.40;0.82;;;;;;;;;;4982847;28;93113;-65
2023/01/04 09:33:37;;;;;;;1.67;1.02;;;;;;;;;;4986718;28;92136;-65
2023/01/04 09:36:24;;;;;;;1.23;0.95;;;;;;;;;;4982300;28;92656;-65
2023/01/04 09:38:53;;;;;;;1.55;0.68;;;;;;;;;;4982658;28;92409;-65
2023/01/04 09:41:27;;;;;;;1.05;0.70;;;;;;;;;;4967473;28;94766;-64
2023/01/04 09:43:55;;;;;;;1.25;0.90;;;;;;;;;;4982413;28;93145;-64
2023/01/04 09:46:33;;;;;;;0.95;0.60;;;;;;;;;;4982211;28;92312;-65
2023/01/04 09:49:08;;;;;;;1.20;0.70;;;;;;;;;;4982756;28;92411;-66
2023/01/04 09:51:36;;;;;;;0.75;0.70;;;;;;;;;;4982268;28;92793;-66
2023/01/04 09:54:15;;;;;;;0.90;0.80;;;;;;;;;;4982522;28;92013;-68
2023/01/04 09:56:54;;;;;;;1.38;0.90;;;;;;;;;;4985053;28;92603;-64
2023/01/04 09:59:24;;;;;;;2.03;0.80;;;;;;;;;;4983415;28;91631;-65
2023/01/04 10:01:54;;;;;;;2.35;1.02;;;;;;;;;;4982154;28;92105;-64
2023/01/04 10:04:25;;;;;;;1.95;1.05;;;;;;;;;;4997320;28;93353;-66
2023/01/04 10:06:52;;;;;;;2.60;1.00;;;;;;;;;;4980548;28;95176;-65
2023/01/04 10:09:23;;;;;;;1.60;0.80;;;;;;;;;;4982103;28;94598;-65
2023/01/04 10:12:05;;;;;;;1.80;0.93;;;;;;;;;;4986243;28;92689;-66
2023/01/04 10:14:44;;;;;;;2.20;0.90;;;;;;;;;;4973129;28;92059;-64
2023/01/04 10:17:19;;;;;;;1.10;0.90;;;;;;;;;;4979328;28;92817;-66
2023/01/04 10:20:24;;;;;;;1.25;0.80;;;;;;;;;;4985076;28;92641;-65
2023/01/04 10:23:29;;;;;;;3.03;0.90;;;;;;;;;;4981992;28;92469;-64
2023/01/04 10:26:06;;;;;;;1.67;1.00;;;;;;;;;;4981737;28;92319;-65
2023/01/04 10:28:38;;;;;;;1.20;1.00;;;;;;;;;;4982284;28;92244;-65
2023/01/04 10:31:12;;;;;;;1.35;0.88;;;;;;;;;;4981669;28;92411;-65
2023/01/04 10:34:11;;;;;;;0.80;0.80;;;;;;;;;;4980344;28;94960;-65
2023/01/04 10:36:45;;;;;;;1.52;0.73;;;;;;;;;;4981658;28;91986;-65
2023/01/04 10:39:15;;;;;;;1.23;0.70;;;;;;;;;;4981714;28;92675;-65
2023/01/04 10:41:46;;;;;;;1.30;0.75;;;;;;;;;;4981601;28;93114;-66
2023/01/04 10:44:19;;;;;;;1.65;0.90;;;;;;;;;;4983938;28;92112;-65
2023/01/04 10:46:49;;;;;;;1.33;1.00;;;;;;;;;;4981508;28;92939;-67
2023/01/04 10:49:32;;;;;;;1.38;0.80;;;;;;;;;;4981887;28;92555;-66
2023/01/04 10:52:01;;;;;;;1.90;0.90;;;;;;;;;;4982046;28;92980;-65
2023/01/04 10:54:37;;;;;;;2.45;0.82;;;;;;;;;;4981329;28;92725;-65
2023/01/04 10:57:08;;;;;;;1.58;0.80;;;;;;;;;;4979914;28;92775;-66
2023/01/04 10:59:38;;;;;;;2.13;0.77;;;;;;;;;;4978427;28;94968;-66
2023/01/04 11:02:24;;;;;;;1.27;0.80;;;;;;;;;;4980841;28;93603;-64
2023/01/04 11:04:50;;;;;;;1.98;0.70;;;;;;;;;;4984768;28;92026;-65
2023/01/04 11:07:30;;;;;;;1.80;0.80;;;;;;;;;;4980803;28;93095;-66
2023/01/04 11:09:59;;;;;;;2.28;0.77;;;;;;;;;;4981625;28;92098;-65
2023/01/04 11:12:26;;;;;;;1.02;0.80;;;;;;;;;;4981587;28;92039;-65
2023/01/04 11:14:52;;;;;;;1.98;0.88;;;;;;;;;;4981085;28;92705;-65
2023/01/04 11:17:20;;;;;;;3.17;0.95;;;;;;;;;;4981509;28;91299;-66
2023/01/04 11:19:46;;;;;;;1.67;0.85;;;;;;;;;;4981788;28;92401;-64
2023/01/04 11:22:19;;;;;;;1.02;0.88;;;;;;;;;;4980748;28;93123;-66
2023/01/04 11:24:47;;;;;;;2.03;0.90;;;;;;;;;;4995141;28;94972;-64
2023/01/04 11:27:37;;;;;;;1.38;0.90;;;;;;;;;;4988636;28;96726;-65
2023/01/04 11:30:18;;;;;;;1.55;0.80;;;;;;;;;;4981296;28;92233;-65
2023/01/04 11:33:01;;;;;;;1.85;1.00;;;;;;;;;;4980971;28;92848;-66
2023/01/04 11:35:39;;;;;;;0.93;0.70;;;;;;;;;;4981396;28;92702;-66
2023/01/04 11:38:11;;;;;;;1.73;0.77;;;;;;;;;;4969174;28;92461;-66
2023/01/04 11:40:37;;;;;;;1.88;0.90;;;;;;;;;;4980980;28;92378;-66
2023/01/04 11:43:20;;;;;;;2.00;1.15;;;;;;;;;;4981604;28;92167;-66
2023/01/04 11:45:58;;;;;;;1.15;0.65;;;;;;;;;;4980164;28;92546;-66
2023/01/04 11:48:45;;;;;;;1.92;0.90;;;;;;;;;;4980995;28;92440;-66
2023/01/04 11:51:30;;;;;;;1.45;0.75;;;;;;;;;;4985634;28;95085;-66
2023/01/04 11:54:00;;;;;;;1.17;0.70;;;;;;;;;;4989186;28;96928;-65
2023/01/04 11:56:28;;;;;;;1.85;1.00;;;;;;;;;;4980601;28;93080;-65
2023/01/04 11:59:05;;;;;;;1.73;0.80;;;;;;;;;;4979821;28;92102;-68
2023/01/04 12:01:33;;;;;;;2.55;0.90;;;;;;;;;;4980979;28;92469;-66
2023/01/04 12:03:59;;;;;;;1.17;0.70;;;;;;;;;;4980664;28;92858;-65
2023/01/04 12:06:35;;;;;;;1.30;0.90;;;;;;;;;;4981058;28;92704;-66
2023/01/04 12:09:01;;;;;;;1.23;0.90;;;;;;;;;;4982316;28;93028;-64
2023/01/04 12:11:29;;;;;;;1.60;0.85;;;;;;;;;;4986560;28;92089;-65
2023/01/04 12:13:55;;;;;;;;;;;;;;;;;;4987401;28;92776;-63
2023/01/04 12:16:32;;;;;;;3.00;0.90;;;;;;;;;;4982956;28;113097;-64
2023/01/04 12:18:59;;;;;;;2.03;0.88;;;;;;;;;;4982620;28;92252;-65
2023/01/04 12:21:26;;;;;;;1.27;0.90;;;;;;;;;;4983961;28;92916;-65
2023/01/04 12:23:53;;;;;;;1.50;0.70;;;;;;;;;;4983899;28;93193;-65
2023/01/04 12:26:22;;;;;;;;;;;;;;;;;;4963299;28;92489;-66
2023/01/04 12:28:49;;;;;;;1.85;0.80;;;;;;;;;;4979469;28;121253;-69
2023/01/04 12:31:19;;;;;;;1.70;0.80;;;;;;;;;;4983330;28;92796;-65
2023/01/04 12:33:51;;;;;;;1.05;0.82;;;;;;;;;;4984459;28;91325;-65
2023/01/04 12:36:19;;;;;;;1.23;0.88;;;;;;;;;;4986864;28;92410;-65
2023/01/04 12:38:51;;;;;;;1.83;0.90;;;;;;;;;;4983589;28;92205;-66
2023/01/04 12:41:18;;;;;;;2.25;1.00;;;;;;;;;;4982056;28;94973;-65
2023/01/04 12:43:46;;;;;;;1.58;0.80;;;;;;;;;;4983547;28;92603;-66
2023/01/04 12:49:02;;;;;;;;;;;;;;;;;;4983754;28;92265;-66
2023/01/04 12:49:19;;;;;;;2.00;0.82;;;;;;;;;;4984597;28;119978;-66
2023/01/04 12:51:45;;;;;;;1.58;0.90;;;;;;;;;;4983156;28;92716;-65
2023/01/04 12:54:43;;;;;;;2.20;0.80;;;;;;;;;;4983484;28;92377;-65
2023/01/04 12:57:09;;;;;;;2.25;0.98;;;;;;;;;;4983247;28;92446;-65
2023/01/04 12:59:37;;;;;;;1.38;0.90;;;;;;;;;;4985504;28;92302;-65
2023/01/04 13:02:03;;;;;;;;;;;;;;;;;;4983509;28;92097;-65
2023/01/04 13:04:40;;;;;;;1.52;0.80;;;;;;;;;;4983930;28;107733;-65
2023/01/04 13:07:18;;;;;;;2.63;1.17;;;;;;;;;;4980058;28;94510;-65
2023/01/04 13:09:50;;;;;;;1.73;0.80;;;;;;;;;;4977720;28;94675;-65
2023/01/04 13:12:39;;;;;;;2.45;0.80;;;;;;;;;;4986033;28;93112;-65
2023/01/04 13:15:10;;;;;;;1.38;0.80;;;;;;;;;;4981561;28;92185;-65
2023/01/04 13:17:44;;;;;;;2.25;0.88;;;;;;;;;;4982924;28;92780;-65
2023/01/04 13:20:13;;;;;;;2.35;0.93;;;;;;;;;;4985889;28;93144;-65
2023/01/04 13:22:43;;;;;;;2.15;1.10;;;;;;;;;;4982656;28;92442;-64
2023/01/04 13:25:12;;;;;;;2.85;1.10;;;;;;;;;;4982233;28;91720;-65
2023/01/04 13:27:52;;;;;;;2.70;1.10;;;;;;;;;;4982372;28;92134;-65
2023/01/04 13:30:36;;;;;;;2.65;0.90;;;;;;;;;;4983134;28;91954;-65
2023/01/04 13:33:12;;;;;;;3.45;1.00;;;;;;;;;;4980950;28;95160;-65
2023/01/04 13:36:02;;;;;;;2.80;0.93;;;;;;;;;;4982703;28;92106;-66
2023/01/04 13:38:30;;;;;;;2.80;0.90;;;;;;;;;;4982561;28;92425;-65
2023/01/04 13:40:56;;;;;;;1.63;0.80;;;;;;;;;;4982225;28;92126;-66
2023/01/04 13:43:33;;;;;;;1.77;1.02;;;;;;;;;;4984354;28;92193;-65
2023/01/04 13:46:03;;;;;;;2.40;0.77;;;;;;;;;;4981046;28;94717;-65
2023/01/04 13:48:37;;;;;;;1.50;0.80;;;;;;;;;;4982860;28;92404;-64
2023/01/04 13:51:05;;;;;;;2.83;0.85;;;;;;;;;;4983087;28;92673;-67
2023/01/04 13:53:31;;;;;;;2.50;0.88;;;;;;;;;;4982381;28;92834;-65
2023/01/04 13:56:01;;;;;;;2.25;0.70;;;;;;;;;;4982273;28;92227;-65
2023/01/04 13:58:29;;;;;;;2.38;0.82;;;;;;;;;;4980840;28;94899;-65
2023/01/04 14:01:00;;;;;;;2.53;0.80;;;;;;;;;;4982524;28;93190;-65
2023/01/04 14:03:32;;;;;;;2.13;0.98;;;;;;;;;;4981912;28;92345;-63
2023/01/04 14:06:08;;;;;;;2.35;0.80;;;;;;;;;;4978573;28;92339;-65
2023/01/04 14:08:38;;;;;;;2.75;0.80;;;;;;;;;;4982393;28;92177;-65
2023/01/04 14:11:13;;;;;;;3.47;0.90;;;;;;;;;;4982110;28;93125;-64
2023/01/04 14:13:50;;;;;;;2.05;0.85;;;;;;;;;;4984716;28;93124;-64
2023/01/04 14:16:17;;;;;;;4.05;0.98;;;;;;;;;;4982838;28;91292;-65
2023/01/04 14:18:43;;;;;;;2.33;0.90;;;;;;;;;;4997313;28;92516;-63
2023/01/04 14:21:14;;;;;;;3.38;0.90;;;;;;;;;;4982170;28;93375;-65
2023/01/04 14:23:40;;;;;;;2.30;0.73;;;;;;;;;;4980588;28;94925;-64
2023/01/04 14:26:06;;;;;;;4.07;1.00;;;;;;;;;;4980883;28;95206;-64
2023/01/04 14:28:35;;;;;;;2.35;0.70;;;;;;;;;;4985178;28;92791;-64
2023/01/04 14:31:06;;;;;;;1.63;1.00;;;;;;;;;;4982040;28;92146;-65
2023/01/04 14:33:34;;;;;;;3.55;0.90;;;;;;;;;;4980717;28;93571;-66
2023/01/04 14:36:11;;;;;;;1.98;1.00;;;;;;;;;;4981936;28;92054;-64
2023/01/04 14:38:43;;;;;;;3.15;1.00;;;;;;;;;;4981846;28;92816;-66
2023/01/04 14:41:10;;;;;;;3.28;1.10;;;;;;;;;;4982041;28;92013;-65
2023/01/04 14:43:47;;;;;;;2.15;1.00;;;;;;;;;;4981655;28;92280;-65
2023/01/04 14:46:13;;;;;;;2.05;0.90;;;;;;;;;;4980333;28;92706;-65
2023/01/04 14:48:40;;;;;;;3.70;1.00;;;;;;;;;;4979960;28;95165;-66
2023/01/04 14:51:06;;;;;;;1.98;0.85;;;;;;;;;;4984663;28;92453;-64
2023/01/04 14:53:33;;;;;;;1.98;0.90;;;;;;;;;;4981745;28;92786;-65
2023/01/04 14:55:59;;;;;;;2.70;0.82;;;;;;;;;;4981465;28;93176;-67
2023/01/04 14:58:25;;;;;;;1.67;0.80;;;;;;;;;;4981633;28;92265;-65
2023/01/04 15:00:52;;;;;;;2.53;0.80;;;;;;;;;;4971668;28;92903;-65
2023/01/04 15:03:18;;;;;;;3.35;0.90;;;;;;;;;;4980149;28;92521;-66
2023/01/04 15:05:45;;;;;;;2.47;1.00;;;;;;;;;;4982050;28;91761;-66
2023/01/04 15:08:12;;;;;;;2.97;1.10;;;;;;;;;;4981135;28;93231;-66
2023/01/04 15:10:38;;;;;;;1.67;0.77;;;;;;;;;;4981354;28;92415;-65
2023/01/04 15:13:04;;;;;;;2.22;0.95;;;;;;;;;;4987502;28;94735;-65
2023/01/04 15:15:33;;;;;;;2.70;1.05;;;;;;;;;;4981563;28;92379;-65
2023/01/04 15:18:00;;;;;;;3.70;0.90;;;;;;;;;;4981759;28;92696;-65
2023/01/04 15:20:26;;;;;;;3.30;1.20;;;;;;;;;;4981483;28;92780;-65
2023/01/04 15:22:53;;;;;;;4.30;1.15;;;;;;;;;;4981878;28;92608;-65
2023/01/04 15:25:19;;;;;;;3.05;1.05;;;;;;;;;;4982049;28;92425;-65
2023/01/04 15:27:45;;;;;;;1.88;0.82;;;;;;;;;;4981540;28;92726;-64
2023/01/04 15:30:12;;;;;;;3.03;1.10;;;;;;;;;;4982645;28;91752;-65
2023/01/04 15:32:39;;;;;;;5.50;1.10;;;;;;;;;;4984518;28;92378;-64
2023/01/04 15:35:06;;;;;;;3.78;1.02;;;;;;;;;;4997040;28;92421;-64
2023/01/04 15:37:32;;;;;;;4.05;1.15;;;;;;;;;;4979826;28;94839;-63
2023/01/04 15:39:58;;;;;;;2.70;1.02;;;;;;;;;;4980983;28;93116;-65
2023/01/04 15:45:14;;;;;;;8.05;1.52;;;;;;;;;;4984467;28;92438;-66
2023/01/04 15:47:41;;;;;;;6.38;1.60;;;;;;;;;;4971495;28;92707;-67
2023/01/04 15:50:07;;;;;;;4.57;1.25;;;;;;;;;;4985474;28;92346;-68